createdAt,value
2019-04-16T00:01:44.692Z,7.75
2019-04-16T00:04:27.251Z,8.70
2019-04-16T00:07:14.560Z,8.90
2019-04-16T00:10:03.167Z,9.00
2019-04-16T00:12:51.705Z,8.70
2019-04-16T00:15:21.280Z,9.00
2019-04-16T00:17:50.913Z,8.43
2019-04-16T00:20:20.518Z,9.70
2019-04-16T00:22:56.571Z,9.10
2019-04-16T00:25:26.368Z,9.00
2019-04-16T00:27:59.591Z,8.43
2019-04-16T00:30:27.200Z,9.60
2019-04-16T00:32:56.870Z,8.95
2019-04-16T00:35:26.744Z,8.25
2019-04-16T00:37:56.340Z,8.33
2019-04-16T00:40:27.305Z,9.30
2019-04-16T00:42:57.416Z,8.75
2019-04-16T00:45:27.090Z,8.48
2019-04-16T00:47:56.708Z,7.87
2019-04-16T00:50:26.278Z,9.18
2019-04-16T00:52:55.985Z,9.55
2019-04-16T00:55:25.437Z,8.55
2019-04-16T00:57:55.011Z,7.40
2019-04-16T01:00:24.598Z,7.45
2019-04-16T01:02:54.251Z,8.75
2019-04-16T01:05:23.816Z,8.58
2019-04-16T01:07:53.343Z,9.68
2019-04-16T01:10:22.998Z,8.45
2019-04-16T01:12:52.563Z,8.63
2019-04-16T01:15:22.081Z,7.22
2019-04-16T01:17:52.626Z,8.10
2019-04-16T01:20:22.132Z,8.00
2019-04-16T01:22:51.738Z,8.10
2019-04-16T01:25:23.247Z,8.43
2019-04-16T01:28:00.784Z,9.30
2019-04-16T01:30:46.271Z,7.83
2019-04-16T01:33:22.008Z,7.95
2019-04-16T01:36:07.309Z,7.45
2019-04-16T01:38:49.014Z,8.15
2019-04-16T01:41:21.663Z,9.33
2019-04-16T01:43:50.036Z,8.40
2019-04-16T01:46:19.712Z,8.00
2019-04-16T01:48:49.256Z,8.40
2019-04-16T01:51:19.032Z,9.15
2019-04-16T01:53:49.468Z,8.40
2019-04-16T01:56:19.797Z,7.97
2019-04-16T01:58:49.354Z,7.87
2019-04-16T02:01:19.013Z,7.30
2019-04-16T02:03:49.563Z,7.05
2019-04-16T02:06:19.354Z,9.28
2019-04-16T02:08:48.992Z,7.50
2019-04-16T02:11:18.558Z,8.50
2019-04-16T02:13:48.080Z,8.30
2019-04-16T02:16:17.628Z,6.25
2019-04-16T02:18:47.134Z,9.30
2019-04-16T02:21:16.771Z,8.10
2019-04-16T02:23:48.130Z,6.97
2019-04-16T02:26:17.364Z,8.65
2019-04-16T02:28:46.971Z,7.60
2019-04-16T02:31:16.502Z,7.65
2019-04-16T02:33:46.144Z,7.67
2019-04-16T02:36:15.795Z,7.25
2019-04-16T02:38:52.324Z,8.03
2019-04-16T02:41:16.488Z,7.45
2019-04-16T02:43:46.136Z,8.48
2019-04-16T02:46:15.689Z,7.30
2019-04-16T02:48:49.974Z,8.20
2019-04-16T02:51:23.628Z,6.85
2019-04-16T02:54:14.403Z,7.78
2019-04-16T02:57:25.808Z,8.00
2019-04-16T02:59:52.556Z,9.15
2019-04-16T03:02:38.118Z,8.15
2019-04-16T03:05:35.887Z,7.30
2019-04-16T03:08:05.985Z,8.03
2019-04-16T03:10:35.934Z,8.40
2019-04-16T03:13:05.823Z,8.60
2019-04-16T03:16:12.360Z,7.62
2019-04-16T03:18:49.632Z,6.15
2019-04-16T03:21:19.311Z,7.35
2019-04-16T03:23:48.807Z,6.80
2019-04-16T03:26:18.389Z,7.47
2019-04-16T03:28:47.915Z,7.70
2019-04-16T03:31:22.203Z,7.90
2019-04-16T03:33:50.896Z,7.37
2019-04-16T03:36:20.065Z,7.00
2019-04-16T03:38:49.799Z,7.40
2019-04-16T03:41:19.353Z,8.55
2019-04-16T03:43:48.930Z,7.28
2019-04-16T03:46:18.448Z,8.20
2019-04-16T03:48:48.617Z,7.40
2019-04-16T03:51:18.441Z,8.03
2019-04-16T03:53:49.741Z,7.50
2019-04-16T03:56:19.178Z,6.65
2019-04-16T03:58:48.863Z,7.17
2019-04-16T04:01:21.219Z,7.03
2019-04-16T04:03:50.844Z,7.70
2019-04-16T04:06:20.594Z,7.00
2019-04-16T04:08:53.098Z,7.15
2019-04-16T04:11:21.815Z,6.83
2019-04-16T04:13:51.406Z,7.37
2019-04-16T04:16:21.092Z,7.83
2019-04-16T04:18:50.711Z,7.10
2019-04-16T04:21:22.054Z,7.50
2019-04-16T04:23:51.463Z,8.15
2019-04-16T04:26:21.131Z,7.35
2019-04-16T04:28:51.597Z,7.95
2019-04-16T04:31:22.195Z,8.20
2019-04-16T04:33:52.048Z,7.95
2019-04-16T04:36:23.335Z,7.33
2019-04-16T04:38:53.095Z,9.25
2019-04-16T04:41:24.138Z,6.97
2019-04-16T04:43:53.858Z,6.85
2019-04-16T04:46:23.415Z,8.23
2019-04-16T04:48:55.324Z,8.50
2019-04-16T04:51:24.159Z,6.78
2019-04-16T04:53:53.671Z,8.90
2019-04-16T04:56:27.664Z,7.92
2019-04-16T04:58:54.557Z,7.92
2019-04-16T05:01:24.174Z,8.53
2019-04-16T05:04:12.606Z,8.88
2019-04-16T05:06:42.504Z,8.75
2019-04-16T05:09:12.168Z,7.40
2019-04-16T05:11:41.906Z,8.08
2019-04-16T05:14:11.673Z,7.85
2019-04-16T05:16:41.309Z,8.38
2019-04-16T05:19:13.772Z,8.00
2019-04-16T05:21:42.429Z,8.15
2019-04-16T05:24:11.977Z,8.20
2019-04-16T05:26:41.733Z,8.23
2019-04-16T05:29:16.280Z,7.67
2019-04-16T05:31:43.902Z,8.30
2019-04-16T05:34:16.794Z,7.33
2019-04-16T05:36:47.693Z,7.25
2019-04-16T05:39:16.049Z,8.30
2019-04-16T05:41:45.711Z,8.38
2019-04-16T05:44:17.911Z,9.93
2019-04-16T05:46:47.515Z,8.43
2019-04-16T05:49:18.442Z,8.68
2019-04-16T05:51:50.981Z,8.30
2019-04-16T05:54:41.448Z,7.37
2019-04-16T05:57:13.298Z,7.70
2019-04-16T05:59:42.994Z,6.35
2019-04-16T06:02:23.748Z,7.47
2019-04-16T06:04:55.977Z,7.28
2019-04-16T06:07:24.567Z,8.10
2019-04-16T06:09:56.698Z,8.00
2019-04-16T06:12:33.435Z,8.40
2019-04-16T06:15:22.581Z,8.00
2019-04-16T06:18:18.317Z,7.45
2019-04-16T06:21:07.427Z,7.58
2019-04-16T06:24:03.382Z,14.25
2019-04-16T06:27:04.693Z,8.68
2019-04-16T06:29:57.581Z,8.33
2019-04-16T06:32:51.724Z,8.78
2019-04-16T06:35:55.451Z,9.95
2019-04-16T06:38:29.217Z,8.48
2019-04-16T06:41:09.748Z,8.68
2019-04-16T06:43:44.916Z,8.00
2019-04-16T06:46:40.035Z,7.12
2019-04-16T06:49:21.278Z,8.10
2019-04-16T06:52:16.646Z,6.90
2019-04-16T06:54:55.791Z,8.93
2019-04-16T06:57:44.300Z,7.55
2019-04-16T07:00:44.957Z,7.42
2019-04-16T07:03:33.617Z,8.60
2019-04-16T07:06:25.165Z,6.80
2019-04-16T07:09:41.111Z,7.70
2019-04-16T07:12:28.490Z,7.60
2019-04-16T07:14:58.234Z,7.80
2019-04-16T07:17:32.954Z,7.70
2019-04-16T07:19:59.129Z,8.78
2019-04-16T07:22:28.778Z,7.58
2019-04-16T07:25:03.780Z,8.48
2019-04-16T07:27:52.251Z,7.90
2019-04-16T07:30:26.325Z,6.55
2019-04-16T07:33:17.807Z,8.53
2019-04-16T07:35:55.770Z,8.65
2019-04-16T07:38:47.341Z,8.38
2019-04-16T07:41:48.622Z,8.03
2019-04-16T07:44:29.013Z,7.83
2019-04-16T07:47:09.538Z,7.60
2019-04-16T07:50:06.931Z,7.40
2019-04-16T07:52:43.760Z,8.55
2019-04-16T07:55:41.191Z,7.90
2019-04-16T07:58:10.777Z,7.83
2019-04-16T08:00:41.405Z,6.33
2019-04-16T08:03:11.246Z,7.78
2019-04-16T08:05:41.831Z,8.15
2019-04-16T08:08:12.391Z,6.70
2019-04-16T08:10:42.466Z,8.40
2019-04-16T08:13:22.018Z,8.53
2019-04-16T08:15:51.618Z,8.50
2019-04-16T08:18:21.212Z,8.65
2019-04-16T08:21:01.365Z,9.18
2019-04-16T08:23:39.677Z,8.00
2019-04-16T08:26:13.348Z,7.80
2019-04-16T08:28:40.647Z,7.83
2019-04-16T08:31:14.622Z,8.53
2019-04-16T08:33:44.143Z,9.30
2019-04-16T08:36:14.060Z,8.85
2019-04-16T08:38:43.763Z,10.00
2019-04-16T08:41:16.631Z,8.70
2019-04-16T08:43:44.560Z,8.15
2019-04-16T08:46:14.123Z,10.32
2019-04-16T08:48:48.908Z,9.13
2019-04-16T08:51:29.227Z,9.20
2019-04-16T08:53:46.746Z,7.70
2019-04-16T08:56:17.181Z,9.25
2019-04-16T08:58:46.779Z,10.18
2019-04-16T09:01:23.289Z,8.55
2019-04-16T09:03:50.042Z,7.92
2019-04-16T09:06:19.626Z,8.18
2019-04-16T09:09:24.283Z,8.55
2019-04-16T09:11:57.021Z,10.35
2019-04-16T09:14:28.793Z,9.30
2019-04-16T09:17:09.513Z,9.60
2019-04-16T09:19:39.485Z,7.78
2019-04-16T09:22:09.085Z,9.48
2019-04-16T09:24:44.730Z,8.63
2019-04-16T09:27:34.325Z,9.50
2019-04-16T09:30:39.216Z,10.18
2019-04-16T09:33:15.274Z,9.33
2019-04-16T09:36:08.218Z,9.08
2019-04-16T09:38:49.525Z,8.90
2019-04-16T09:41:25.722Z,11.83
2019-04-16T09:43:58.097Z,9.63
2019-04-16T09:46:49.838Z,10.05
2019-04-16T09:48:59.033Z,9.65
2019-04-16T09:51:29.101Z,8.95
2019-04-16T09:53:58.585Z,9.10
2019-04-16T09:56:32.156Z,10.20
2019-04-16T09:59:11.031Z,8.95
2019-04-16T10:01:42.799Z,9.48
2019-04-16T10:04:14.881Z,9.58
2019-04-16T10:06:44.491Z,10.00
2019-04-16T10:09:20.419Z,10.80
2019-04-16T10:11:45.409Z,9.90
2019-04-16T10:14:15.444Z,11.20
2019-04-16T10:16:45.594Z,10.47
2019-04-16T10:19:15.155Z,11.08
2019-04-16T10:21:45.075Z,9.80
2019-04-16T10:24:51.575Z,10.63
2019-04-16T10:27:46.546Z,10.57
2019-04-16T10:30:38.853Z,11.33
2019-04-16T10:33:08.624Z,10.97
2019-04-16T10:35:38.526Z,10.47
2019-04-16T10:38:27.253Z,9.90
2019-04-16T10:41:04.541Z,12.47
2019-04-16T10:44:02.216Z,10.70
2019-04-16T10:46:54.199Z,10.40
2019-04-16T10:49:32.638Z,11.70
2019-04-16T10:52:26.891Z,11.00
2019-04-16T10:55:01.400Z,10.90
2019-04-16T10:57:48.702Z,10.67
2019-04-16T11:00:46.516Z,9.97
2019-04-16T11:03:24.354Z,10.60
2019-04-16T11:05:58.395Z,11.53
2019-04-16T11:08:28.401Z,12.60
2019-04-16T11:10:58.159Z,11.70
2019-04-16T11:13:33.554Z,10.90
2019-04-16T11:16:09.749Z,11.03
2019-04-16T11:18:39.491Z,11.13
2019-04-16T11:21:09.264Z,10.30
2019-04-16T11:23:39.046Z,12.83
2019-04-16T11:26:08.586Z,12.50
2019-04-16T11:28:38.163Z,11.70
2019-04-16T11:31:11.928Z,12.43
2019-04-16T11:33:41.533Z,11.30
2019-04-16T11:36:19.463Z,12.57
2019-04-16T11:38:42.228Z,12.87
2019-04-16T11:41:11.876Z,12.00
2019-04-16T11:43:41.413Z,12.50
2019-04-16T11:46:11.484Z,12.90
2019-04-16T11:48:41.103Z,10.40
2019-04-16T11:51:10.672Z,11.80
2019-04-16T11:53:40.250Z,12.20
2019-04-16T11:56:09.809Z,11.90
2019-04-16T11:58:48.366Z,11.20
2019-04-16T12:01:23.951Z,11.93
2019-04-16T12:04:00.460Z,13.10
2019-04-16T12:06:47.364Z,13.60
2019-04-16T12:09:53.918Z,13.47
2019-04-16T12:12:27.728Z,11.57
2019-04-16T12:15:15.146Z,11.80
2019-04-16T12:17:56.536Z,12.83
2019-04-16T12:20:44.912Z,12.37
2019-04-16T12:23:42.310Z,12.60
2019-04-16T12:26:31.943Z,14.83
2019-04-16T12:29:26.569Z,12.50
2019-04-16T12:32:13.787Z,12.57
2019-04-16T12:35:05.697Z,12.33
2019-04-16T12:37:52.614Z,11.77
2019-04-16T12:40:47.155Z,12.93
2019-04-16T12:43:27.194Z,13.03
2019-04-16T12:46:12.341Z,11.47
2019-04-16T12:49:15.759Z,11.43
2019-04-16T12:51:54.401Z,11.33
2019-04-16T12:54:41.677Z,12.00
2019-04-16T12:57:46.902Z,11.80
2019-04-16T13:00:31.634Z,12.47
2019-04-16T13:03:19.110Z,12.87
2019-04-16T13:06:27.010Z,11.80
2019-04-16T13:09:33.634Z,13.90
2019-04-16T13:12:21.567Z,13.47
2019-04-16T13:15:13.373Z,11.97
2019-04-16T13:18:01.829Z,11.93
2019-04-16T13:20:57.131Z,12.43
2019-04-16T13:23:36.866Z,11.60
2019-04-16T13:26:43.581Z,11.50
2019-04-16T13:29:19.072Z,11.87
2019-04-16T13:31:48.661Z,12.80
2019-04-16T13:34:19.322Z,13.73
2019-04-16T13:36:51.658Z,12.37
2019-04-16T13:39:27.709Z,11.63
2019-04-16T13:41:57.319Z,12.97
2019-04-16T13:44:29.980Z,14.23
2019-04-16T13:47:03.024Z,13.90
2019-04-16T13:49:43.065Z,13.20
2019-04-16T13:52:12.635Z,12.83
2019-04-16T13:55:10.639Z,12.97
2019-04-16T13:57:40.715Z,12.80
2019-04-16T14:00:29.117Z,13.43
2019-04-16T14:03:02.598Z,12.77
2019-04-16T14:05:37.532Z,13.07
2019-04-16T14:08:03.510Z,13.70
2019-04-16T14:10:33.059Z,13.20
2019-04-16T14:13:02.890Z,13.23
2019-04-16T14:15:38.957Z,12.60
2019-04-16T14:18:05.941Z,16.30
2019-04-16T14:20:35.529Z,14.63
2019-04-16T14:23:05.144Z,14.73
2019-04-16T14:25:34.781Z,14.80
2019-04-16T14:28:04.380Z,15.90
2019-04-16T14:30:39.504Z,15.80
2019-04-16T14:33:08.562Z,15.70
2019-04-16T14:35:40.383Z,14.47
2019-04-16T14:38:10.551Z,13.90
2019-04-16T14:40:42.300Z,15.33
2019-04-16T14:43:12.719Z,16.17
2019-04-16T14:45:57.665Z,16.03
2019-04-16T14:48:16.613Z,15.77
2019-04-16T14:50:46.181Z,16.73
2019-04-16T14:53:34.918Z,16.20
2019-04-16T14:56:13.258Z,15.70
2019-04-16T14:59:01.774Z,17.27
2019-04-16T15:01:48.895Z,17.03
2019-04-16T15:04:49.316Z,16.27
2019-04-16T15:07:33.097Z,15.00
2019-04-16T15:10:27.501Z,15.33
2019-04-16T15:13:16.408Z,15.40
2019-04-16T15:16:22.255Z,15.63
2019-04-16T15:19:22.020Z,17.30
2019-04-16T15:22:09.108Z,15.03
2019-04-16T15:25:16.165Z,17.00
2019-04-16T15:28:05.359Z,16.87
2019-04-16T15:30:53.962Z,17.30
2019-04-16T15:33:43.742Z,20.67
2019-04-16T15:36:19.422Z,16.53
2019-04-16T15:38:53.961Z,16.07
2019-04-16T15:41:30.466Z,14.63
2019-04-16T15:44:22.637Z,16.77
2019-04-16T15:47:07.697Z,15.43
2019-04-16T15:50:05.007Z,15.93
2019-04-16T15:52:46.349Z,16.37
2019-04-16T15:55:37.041Z,14.53
2019-04-16T15:58:32.142Z,14.70
2019-04-16T16:01:17.664Z,15.97
2019-04-16T16:04:09.140Z,16.63
2019-04-16T16:07:00.713Z,16.00
2019-04-16T16:09:47.754Z,16.10
2019-04-16T16:12:23.057Z,17.50
2019-04-16T16:14:52.864Z,17.93
2019-04-16T16:17:23.398Z,14.90
2019-04-16T16:19:53.085Z,16.30
2019-04-16T16:22:22.735Z,15.97
2019-04-16T16:25:11.442Z,18.00
2019-04-16T16:27:43.865Z,17.10
2019-04-16T16:30:15.036Z,17.30
2019-04-16T16:32:43.796Z,15.67
2019-04-16T16:35:16.740Z,17.30
2019-04-16T16:37:44.760Z,16.43
2019-04-16T16:40:15.089Z,17.33
2019-04-16T16:42:45.690Z,15.73
2019-04-16T16:45:15.469Z,16.23
2019-04-16T16:47:45.259Z,14.80
2019-04-16T16:50:18.057Z,16.10
2019-04-16T16:52:56.434Z,16.30
2019-04-16T16:55:33.668Z,17.83
2019-04-16T16:58:25.196Z,15.10
2019-04-16T17:01:19.148Z,15.90
2019-04-16T17:04:04.110Z,14.80
2019-04-16T17:06:33.716Z,14.97
2019-04-16T17:09:03.961Z,15.17
2019-04-16T17:11:34.392Z,26.80
2019-04-16T17:14:04.150Z,14.43
2019-04-16T17:16:33.954Z,14.47
2019-04-16T17:19:03.621Z,15.37
2019-04-16T17:21:33.451Z,15.70
2019-04-16T17:24:03.105Z,14.40
2019-04-16T17:26:32.902Z,14.90
2019-04-16T17:29:02.598Z,15.20
2019-04-16T17:31:35.807Z,13.57
2019-04-16T17:34:04.936Z,13.90
2019-04-16T17:36:34.748Z,16.43
2019-04-16T17:39:10.429Z,14.80
2019-04-16T17:41:43.350Z,13.73
2019-04-16T17:44:31.958Z,14.30
2019-04-16T17:47:31.498Z,15.50
2019-04-16T17:50:09.520Z,13.70
2019-04-16T17:52:46.604Z,15.03
2019-04-16T17:55:25.281Z,15.20
2019-04-16T17:58:08.333Z,15.70
2019-04-16T18:01:11.763Z,14.70
2019-04-16T18:03:51.624Z,14.27
2019-04-16T18:06:46.015Z,15.93
2019-04-16T18:09:32.803Z,13.13
2019-04-16T18:12:20.704Z,13.20
2019-04-16T18:15:09.641Z,12.10
2019-04-16T18:18:01.345Z,15.30
2019-04-16T18:20:39.246Z,13.60
2019-04-16T18:23:27.842Z,13.73
2019-04-16T18:26:25.871Z,12.97
2019-04-16T18:29:20.391Z,13.80
2019-04-16T18:32:24.058Z,13.70
2019-04-16T18:35:16.117Z,14.90
2019-04-16T18:38:04.231Z,13.57
2019-04-16T18:40:51.295Z,12.80
2019-04-16T18:43:44.232Z,14.07
2019-04-16T18:46:21.045Z,13.73
2019-04-16T18:48:55.061Z,13.93
2019-04-16T18:51:24.258Z,14.20
2019-04-16T18:53:53.772Z,14.50
2019-04-16T18:56:23.308Z,14.50
2019-04-16T18:58:53.032Z,13.50
2019-04-16T19:01:25.971Z,14.40
2019-04-16T19:03:55.526Z,12.43
2019-04-16T19:06:25.317Z,13.50
2019-04-16T19:08:55.022Z,11.40
2019-04-16T19:11:25.109Z,13.70
2019-04-16T19:13:54.805Z,14.93
2019-04-16T19:16:24.463Z,12.30
2019-04-16T19:18:54.070Z,13.67
2019-04-16T19:21:23.766Z,13.27
2019-04-16T19:23:53.374Z,14.70
2019-04-16T19:26:23.552Z,12.63
2019-04-16T19:28:53.582Z,14.30
2019-04-16T19:31:23.929Z,12.03
2019-04-16T19:33:54.360Z,12.33
2019-04-16T19:36:27.458Z,13.57
2019-04-16T19:38:55.614Z,12.70
2019-04-16T19:41:25.398Z,13.10
2019-04-16T19:43:55.239Z,15.37
2019-04-16T19:46:25.123Z,14.70
2019-04-16T19:48:56.667Z,13.37
2019-04-16T19:51:26.388Z,13.30
2019-04-16T19:53:56.019Z,14.97
2019-04-16T19:56:26.934Z,13.65
2019-04-16T19:58:56.517Z,12.97
2019-04-16T20:01:26.605Z,13.73
2019-04-16T20:03:56.434Z,15.23
2019-04-16T20:06:26.345Z,13.32
2019-04-16T20:08:56.333Z,14.80
2019-04-16T20:11:27.074Z,14.07
2019-04-16T20:14:01.479Z,14.50
2019-04-16T20:16:28.928Z,16.50
2019-04-16T20:18:58.933Z,14.73
2019-04-16T20:21:28.794Z,14.58
2019-04-16T20:24:00.622Z,15.15
2019-04-16T20:26:32.558Z,14.10
2019-04-16T20:29:01.784Z,14.33
2019-04-16T20:31:31.407Z,16.23
2019-04-16T20:34:01.120Z,15.25
2019-04-16T20:36:32.956Z,15.93
2019-04-16T20:39:02.591Z,17.05
2019-04-16T20:41:32.268Z,17.05
2019-04-16T20:44:02.133Z,14.93
2019-04-16T20:46:32.022Z,16.05
2019-04-16T20:49:09.645Z,17.60
2019-04-16T20:51:33.298Z,17.57
2019-04-16T20:54:03.041Z,16.67
2019-04-16T20:56:32.677Z,14.95
2019-04-16T20:59:04.329Z,16.23
2019-04-16T21:01:37.527Z,17.80
2019-04-16T21:04:06.472Z,16.73
2019-04-16T21:06:40.780Z,17.32
2019-04-16T21:09:08.299Z,23.22
2019-04-16T21:14:13.414Z,32.67
2019-04-16T21:16:43.697Z,23.70
2019-04-16T21:19:22.891Z,21.48
2019-04-16T21:21:45.056Z,20.62
2019-04-16T21:24:14.774Z,20.35
2019-04-16T21:26:44.546Z,21.95
2019-04-16T21:29:25.411Z,23.40
2019-04-16T21:32:58.837Z,19.02
2019-04-16T21:35:35.592Z,15.58
2019-04-16T21:38:35.261Z,16.97
2019-04-16T21:41:05.113Z,17.52
2019-04-16T21:43:35.682Z,17.52
2019-04-16T21:46:06.565Z,16.00
2019-04-16T21:48:36.212Z,16.15
2019-04-16T21:51:05.943Z,17.07
2019-04-16T21:53:35.721Z,16.32
2019-04-16T21:56:08.120Z,14.93
2019-04-16T21:58:36.917Z,15.85
2019-04-16T22:01:23.961Z,16.10
2019-04-16T22:03:59.683Z,16.80
2019-04-16T22:06:29.591Z,18.92
2019-04-16T22:09:02.492Z,18.95
2019-04-16T22:11:30.633Z,21.57
2019-04-16T22:14:00.506Z,17.73
2019-04-16T22:16:30.632Z,18.25
2019-04-16T22:19:00.724Z,17.00
2019-04-16T22:21:30.437Z,15.93
2019-04-16T22:24:00.031Z,18.10
2019-04-16T22:26:34.233Z,16.73
2019-04-16T22:29:01.044Z,16.70
2019-04-16T22:31:30.682Z,16.93
2019-04-16T22:34:00.367Z,17.80
2019-04-16T22:36:29.959Z,16.07
2019-04-16T22:39:07.737Z,17.73
2019-04-16T22:41:52.524Z,16.70
2019-04-16T22:44:38.435Z,17.25
2019-04-16T22:47:11.428Z,18.05
2019-04-16T22:49:41.219Z,18.77
2019-04-16T22:52:12.470Z,17.55
2019-04-16T22:54:42.388Z,19.60
2019-04-16T22:57:14.183Z,17.85
2019-04-16T22:59:43.861Z,19.07
2019-04-16T23:02:18.407Z,19.48
2019-04-16T23:04:48.042Z,17.85
2019-04-16T23:07:17.761Z,20.68
2019-04-16T23:09:48.742Z,18.45
2019-04-16T23:12:18.937Z,18.92
2019-04-16T23:14:48.548Z,18.15
2019-04-16T23:17:19.120Z,19.70
2019-04-16T23:19:51.697Z,19.98
2019-04-16T23:22:20.036Z,26.87
2019-04-16T23:24:51.733Z,18.00
2019-04-16T23:27:21.235Z,17.80
2019-04-16T23:29:50.832Z,17.27
2019-04-16T23:32:20.548Z,18.00
2019-04-16T23:34:50.082Z,19.00
2019-04-16T23:37:23.064Z,18.17
2019-04-16T23:39:51.115Z,20.02
2019-04-16T23:42:20.796Z,17.80
2019-04-16T23:45:09.369Z,17.20
2019-04-16T23:47:55.544Z,17.70
2019-04-16T23:50:45.292Z,18.37
2019-04-16T23:53:26.166Z,17.50
2019-04-16T23:56:07.677Z,19.15
2019-04-16T23:59:14.418Z,15.40
